sensor_id;sensor_type;location;lat;lon;timestamp;pressure;altitude;pressure_sealevel;temperature;humidity
22930;BME280;11630;42.660;23.292;2023-02-20T00:02:14;68751.41;;;11.04;81.71
22930;BME280;11630;42.660;23.292;2023-02-20T00:04:47;68744.89;;;11.00;82.07
22930;BME280;11630;42.660;23.292;2023-02-20T00:07:18;68744.06;;;10.98;82.41
22930;BME280;11630;42.660;23.292;2023-02-20T00:09:48;68738.08;;;10.95;82.71
22930;BME280;11630;42.660;23.292;2023-02-20T00:12:20;68741.34;;;10.96;82.98
22930;BME280;11630;42.660;23.292;2023-02-20T00:14:51;68733.73;;;10.91;83.61
22930;BME280;11630;42.660;23.292;2023-02-20T00:17:21;68728.03;;;10.90;83.99
22930;BME280;11630;42.660;23.292;2023-02-20T00:19:52;68734.27;;;10.89;84.77
22930;BME280;11630;42.660;23.292;2023-02-20T00:22:24;68730.45;;;10.83;85.38
22930;BME280;11630;42.660;23.292;2023-02-20T00:24:54;68727.18;;;10.80;85.78
22930;BME280;11630;42.660;23.292;2023-02-20T00:27:24;68727.20;;;10.83;86.08
22930;BME280;11630;42.660;23.292;2023-02-20T00:29:54;68729.92;;;10.83;86.34
22930;BME280;11630;42.660;23.292;2023-02-20T00:32:26;68720.13;;;10.76;86.74
22930;BME280;11630;42.660;23.292;2023-02-20T00:34:57;68723.66;;;10.76;87.20
22930;BME280;11630;42.660;23.292;2023-02-20T00:37:29;68722.84;;;10.76;87.46
22930;BME280;11630;42.660;23.292;2023-02-20T00:40:00;68713.59;;;10.71;87.82
22930;BME280;11630;42.660;23.292;2023-02-20T00:42:31;68717.41;;;10.72;87.83
22930;BME280;11630;42.660;23.292;2023-02-20T00:45:01;68716.31;;;10.73;87.84
22930;BME280;11630;42.660;23.292;2023-02-20T00:47:32;68715.78;;;10.73;87.78
22930;BME280;11630;42.660;23.292;2023-02-20T00:50:05;68722.02;;;10.77;87.60
22930;BME280;11630;42.660;23.292;2023-02-20T00:52:36;68709.80;;;10.70;87.77
22930;BME280;11630;42.660;23.292;2023-02-20T00:55:07;68708.97;;;10.65;88.03
22930;BME280;11630;42.660;23.292;2023-02-20T00:57:39;68711.41;;;10.61;88.19
22930;BME280;11630;42.660;23.292;2023-02-20T01:00:18;68703.80;;;10.59;88.34
22930;BME280;11630;42.660;23.292;2023-02-20T01:02:47;68691.83;;;10.51;88.37
22930;BME280;11630;42.660;23.292;2023-02-20T01:05:18;68690.47;;;10.51;88.41
22930;BME280;11630;42.660;23.292;2023-02-20T01:07:48;68686.39;;;10.46;88.59
22930;BME280;11630;42.660;23.292;2023-02-20T01:10:19;68693.47;;;10.50;88.63
22930;BME280;11630;42.660;23.292;2023-02-20T01:12:49;68687.22;;;10.43;89.14
22930;BME280;11630;42.660;23.292;2023-02-20T01:15:21;68690.73;;;10.47;89.36
22930;BME280;11630;42.660;23.292;2023-02-20T01:17:51;68678.52;;;10.37;89.75
22930;BME280;11630;42.660;23.292;2023-02-20T01:20:22;68677.16;;;10.37;90.09
22930;BME280;11630;42.660;23.292;2023-02-20T01:22:56;68675.24;;;10.37;90.38
22930;BME280;11630;42.660;23.292;2023-02-20T01:25:28;68663.56;;;10.27;91.45
22930;BME280;11630;42.660;23.292;2023-02-20T01:27:59;68673.61;;;10.33;91.52
22930;BME280;11630;42.660;23.292;2023-02-20T01:30:30;68672.26;;;10.33;91.96
22930;BME280;11630;42.660;23.292;2023-02-20T01:33:01;68680.14;;;10.39;92.03
22930;BME280;11630;42.660;23.292;2023-02-20T01:35:32;68680.41;;;10.38;91.92
22930;BME280;11630;42.660;23.292;2023-02-20T01:38:04;68677.95;;;10.34;92.32
22930;BME280;11630;42.660;23.292;2023-02-20T01:40:35;68676.33;;;10.38;92.55
22930;BME280;11630;42.660;23.292;2023-02-20T01:43:05;68681.50;;;10.41;92.25
22930;BME280;11630;42.660;23.292;2023-02-20T01:45:38;68688.28;;;10.44;92.30
22930;BME280;11630;42.660;23.292;2023-02-20T01:48:23;68686.95;;;10.49;92.16
22930;BME280;11630;42.660;23.292;2023-02-20T01:50:56;68677.16;;;10.40;93.12
22930;BME280;11630;42.660;23.292;2023-02-20T01:53:30;68683.68;;;10.46;93.13
22930;BME280;11630;42.660;23.292;2023-02-20T01:56:05;68680.70;;;10.42;94.01
22930;BME280;11630;42.660;23.292;2023-02-20T01:58:41;68680.41;;;10.38;94.87
22930;BME280;11630;42.660;23.292;2023-02-20T02:01:11;68660.84;;;10.25;96.00
22930;BME280;11630;42.660;23.292;2023-02-20T02:03:44;68657.86;;;10.21;96.53
22930;BME280;11630;42.660;23.292;2023-02-20T02:06:15;68664.64;;;10.23;96.80
22930;BME280;11630;42.660;23.292;2023-02-20T02:08:47;68644.53;;;10.10;97.48
22930;BME280;11630;42.660;23.292;2023-02-20T02:11:19;68641.81;;;10.02;97.84
22930;BME280;11630;42.660;23.292;2023-02-20T02:13:49;68617.88;;;9.88;96.93
22930;BME280;11630;42.660;23.292;2023-02-20T02:16:42;68609.17;;;9.75;96.90
22930;BME280;11630;42.660;23.292;2023-02-20T02:25:20;68605.08;;;9.70;96.58
22930;BME280;11630;42.660;23.292;2023-02-20T02:36:26;68591.78;;;9.59;96.03
22930;BME280;11630;42.660;23.292;2023-02-20T02:39:01;68589.59;;;9.55;96.07
22930;BME280;11630;42.660;23.292;2023-02-20T02:41:43;68580.37;;;9.49;96.54
22930;BME280;11630;42.660;23.292;2023-02-20T02:46:55;68581.73;;;9.51;95.72
22930;BME280;11630;42.660;23.292;2023-02-20T02:52:09;68593.39;;;9.56;95.29
22930;BME280;11630;42.660;23.292;2023-02-20T02:54:40;68578.75;;;9.50;94.55
22930;BME280;11630;42.660;23.292;2023-02-20T02:57:26;68581.17;;;9.48;94.51
22930;BME280;11630;42.660;23.292;2023-02-20T03:00:04;68581.16;;;9.46;94.66
22930;BME280;11630;42.660;23.292;2023-02-20T03:02:36;68573.03;;;9.43;94.75
22930;BME280;11630;42.660;23.292;2023-02-20T03:05:07;68567.34;;;9.39;94.92
22930;BME280;11630;42.660;23.292;2023-02-20T03:07:38;68564.06;;;9.34;94.98
22930;BME280;11630;42.660;23.292;2023-02-20T03:10:12;68565.16;;;9.35;95.03
22930;BME280;11630;42.660;23.292;2023-02-20T03:12:47;68562.70;;;9.31;95.24
22930;BME280;11630;42.660;23.292;2023-02-20T03:15:29;68565.39;;;9.29;95.40
22930;BME280;11630;42.660;23.292;2023-02-20T03:18:34;68552.39;;;9.24;95.59
22930;BME280;11630;42.660;23.292;2023-02-20T03:21:07;68549.95;;;9.23;95.73
22930;BME280;11630;42.660;23.292;2023-02-20T03:23:37;68549.13;;;9.24;95.39
22930;BME280;11630;42.660;23.292;2023-02-20T03:26:13;68543.44;;;9.18;95.44
22930;BME280;11630;42.660;23.292;2023-02-20T03:28:43;68556.72;;;9.23;95.33
22930;BME280;11630;42.660;23.292;2023-02-20T03:31:23;68548.03;;;9.18;95.20
22930;BME280;11630;42.660;23.292;2023-02-20T03:34:34;68538.80;;;9.10;95.49
22930;BME280;11630;42.660;23.292;2023-02-20T03:36:47;68538.52;;;9.11;95.55
22930;BME280;11630;42.660;23.292;2023-02-20T03:39:32;68540.16;;;9.12;95.57
22930;BME280;11630;42.660;23.292;2023-02-20T03:42:20;68537.72;;;9.09;95.41
22930;BME280;11630;42.660;23.292;2023-02-20T03:45:09;68528.75;;;8.99;95.59
22930;BME280;11630;42.660;23.292;2023-02-20T03:47:43;68533.09;;;9.06;95.37
22930;BME280;11630;42.660;23.292;2023-02-20T03:50:14;68526.31;;;9.01;95.01
22930;BME280;11630;42.660;23.292;2023-02-20T03:52:47;68525.22;;;8.95;95.06
22930;BME280;11630;42.660;23.292;2023-02-20T03:55:18;68518.71;;;8.94;95.02
22930;BME280;11630;42.660;23.292;2023-02-20T03:57:51;68527.10;;;8.95;95.16
22930;BME280;11630;42.660;23.292;2023-02-20T04:00:22;68516.27;;;8.90;95.31
22930;BME280;11630;42.660;23.292;2023-02-20T04:02:54;68521.13;;;8.92;94.79
22930;BME280;11630;42.660;23.292;2023-02-20T04:05:26;68518.15;;;8.91;94.47
22930;BME280;11630;42.660;23.292;2023-02-20T04:07:59;68524.13;;;8.99;93.67
22930;BME280;11630;42.660;23.292;2023-02-20T04:10:33;68532.00;;;9.02;93.12
22930;BME280;11630;42.660;23.292;2023-02-20T04:13:04;68533.09;;;9.06;92.68
22930;BME280;11630;42.660;23.292;2023-02-20T04:15:35;68537.98;;;9.08;92.21
22930;BME280;11630;42.660;23.292;2023-02-20T04:18:17;68536.36;;;9.09;92.01
22930;BME280;11630;42.660;23.292;2023-02-20T04:20:53;68542.31;;;9.12;91.77
22930;BME280;11630;42.660;23.292;2023-02-20T04:23:25;68539.08;;;9.14;91.76
22930;BME280;11630;42.660;23.292;2023-02-20T04:26:05;68541.78;;;9.11;91.90
22930;BME280;11630;42.660;23.292;2023-02-20T04:28:34;68534.19;;;9.07;92.29
22930;BME280;11630;42.660;23.292;2023-02-20T04:31:05;68537.98;;;9.10;92.75
22930;BME280;11630;42.660;23.292;2023-02-20T04:33:37;68537.98;;;9.08;93.38
22930;BME280;11630;42.660;23.292;2023-02-20T04:36:07;68533.63;;;9.04;93.79
22930;BME280;11630;42.660;23.292;2023-02-20T04:38:39;68520.59;;;8.94;94.07
22930;BME280;11630;42.660;23.292;2023-02-20T04:41:09;68528.19;;;8.94;94.05
22930;BME280;11630;42.660;23.292;2023-02-20T04:43:39;68517.33;;;8.89;94.00
22930;BME280;11630;42.660;23.292;2023-02-20T04:46:10;68504.86;;;8.80;93.19
22930;BME280;11630;42.660;23.292;2023-02-20T04:48:40;68506.21;;;8.80;92.59
22930;BME280;11630;42.660;23.292;2023-02-20T04:51:10;68505.13;;;8.79;92.05
22930;BME280;11630;42.660;23.292;2023-02-20T04:53:41;68510.81;;;8.83;91.60
22930;BME280;11630;42.660;23.292;2023-02-20T04:56:12;68505.95;;;8.81;90.80
22930;BME280;11630;42.660;23.292;2023-02-20T04:58:47;68502.16;;;8.80;89.17
22930;BME280;11630;42.660;23.292;2023-02-20T05:01:18;68508.36;;;8.79;88.80
22930;BME280;11630;42.660;23.292;2023-02-20T05:03:49;68509.17;;;8.76;88.66
22930;BME280;11630;42.660;23.292;2023-02-20T05:06:20;68504.56;;;8.78;88.45
22930;BME280;11630;42.660;23.292;2023-02-20T05:08:51;68498.31;;;8.69;88.41
22930;BME280;11630;42.660;23.292;2023-02-20T05:11:22;68485.30;;;8.62;87.91
22930;BME280;11630;42.660;23.292;2023-02-20T05:13:53;68483.95;;;8.62;87.72
22930;BME280;11630;42.660;23.292;2023-02-20T05:16:23;68492.36;;;8.66;87.36
22930;BME280;11630;42.660;23.292;2023-02-20T05:18:54;68474.98;;;8.50;86.37
22930;BME280;11630;42.660;23.292;2023-02-20T05:21:24;68470.63;;;8.46;86.45
22930;BME280;11630;42.660;23.292;2023-02-20T05:24:10;68454.38;;;8.39;86.65
22930;BME280;11630;42.660;23.292;2023-02-20T05:26:40;68454.08;;;8.35;86.82
22930;BME280;11630;42.660;23.292;2023-02-20T05:29:11;68469.27;;;8.41;86.75
22930;BME280;11630;42.660;23.292;2023-02-20T05:31:41;68470.37;;;8.47;86.76
22930;BME280;11630;42.660;23.292;2023-02-20T05:34:12;68463.33;;;8.43;87.28
22930;BME280;11630;42.660;23.292;2023-02-20T05:36:41;68454.91;;;8.34;87.98
22930;BME280;11630;42.660;23.292;2023-02-20T05:39:11;68452.73;;;8.35;88.45
22930;BME280;11630;42.660;23.292;2023-02-20T05:41:42;68465.21;;;8.43;88.50
22930;BME280;11630;42.660;23.292;2023-02-20T05:44:14;68458.44;;;8.39;88.95
22930;BME280;11630;42.660;23.292;2023-02-20T05:46:44;68453.25;;;8.30;89.84
22930;BME280;11630;42.660;23.292;2023-02-20T05:49:18;68456.27;;;8.37;90.28
22930;BME280;11630;42.660;23.292;2023-02-20T05:51:48;68452.19;;;8.29;90.65
22930;BME280;11630;42.660;23.292;2023-02-20T05:54:19;68455.73;;;8.36;90.69
22930;BME280;11630;42.660;23.292;2023-02-20T05:56:50;68457.34;;;8.33;90.92
22930;BME280;11630;42.660;23.292;2023-02-20T05:59:22;68469.56;;;8.47;90.49
22930;BME280;11630;42.660;23.292;2023-02-20T06:01:57;68466.56;;;8.41;90.36
22930;BME280;11630;42.660;23.292;2023-02-20T06:04:28;68463.86;;;8.43;89.92
22930;BME280;11630;42.660;23.292;2023-02-20T06:06:59;68479.05;;;8.55;89.03
22930;BME280;11630;42.660;23.292;2023-02-20T06:09:30;68506.73;;;8.75;86.43
22930;BME280;11630;42.660;23.292;2023-02-20T06:12:01;68519.50;;;8.91;84.23
22930;BME280;11630;42.660;23.292;2023-02-20T06:14:32;68527.92;;;8.97;83.52
22930;BME280;11630;42.660;23.292;2023-02-20T06:17:03;68537.97;;;9.05;82.65
22930;BME280;11630;42.660;23.292;2023-02-20T06:19:33;68534.45;;;9.06;82.03
22930;BME280;11630;42.660;23.292;2023-02-20T06:22:04;68546.41;;;9.14;82.55
22930;BME280;11630;42.660;23.292;2023-02-20T06:24:34;68544.77;;;9.15;82.77
22930;BME280;11630;42.660;23.292;2023-02-20T06:27:05;68540.16;;;9.10;83.27
22930;BME280;11630;42.660;23.292;2023-02-20T06:29:36;68549.66;;;9.19;83.58
22930;BME280;11630;42.660;23.292;2023-02-20T06:32:07;68570.58;;;9.37;83.34
22930;BME280;11630;42.660;23.292;2023-02-20T06:34:39;68583.34;;;9.50;82.04
22930;BME280;11630;42.660;23.292;2023-02-20T06:37:09;68587.97;;;9.51;82.70
22930;BME280;11630;42.660;23.292;2023-02-20T06:39:41;68585.53;;;9.52;82.26
22930;BME280;11630;42.660;23.292;2023-02-20T06:42:12;68590.13;;;9.55;82.98
22930;BME280;11630;42.660;23.292;2023-02-20T06:44:43;68594.77;;;9.63;80.00
22930;BME280;11630;42.660;23.292;2023-02-20T06:47:15;68589.06;;;9.57;78.88
22930;BME280;11630;42.660;23.292;2023-02-20T06:49:45;68586.88;;;9.52;77.71
22930;BME280;11630;42.660;23.292;2023-02-20T06:52:16;68598.03;;;9.66;77.94
22930;BME280;11630;42.660;23.292;2023-02-20T06:54:46;68596.67;;;9.61;78.94
22930;BME280;11630;42.660;23.292;2023-02-20T06:57:17;68610.78;;;9.69;77.84
22930;BME280;11630;42.660;23.292;2023-02-20T06:59:49;68596.93;;;9.58;77.34
22930;BME280;11630;42.660;23.292;2023-02-20T07:02:20;68590.42;;;9.57;77.42
22930;BME280;11630;42.660;23.292;2023-02-20T07:04:51;68594.75;;;9.58;77.15
22930;BME280;11630;42.660;23.292;2023-02-20T07:07:23;68593.41;;;9.63;76.96
22930;BME280;11630;42.660;23.292;2023-02-20T07:09:55;68606.98;;;9.68;74.37
22930;BME280;11630;42.660;23.292;2023-02-20T07:12:24;68601.83;;;9.65;73.08
22930;BME280;11630;42.660;23.292;2023-02-20T07:14:55;68619.76;;;9.81;72.96
22930;BME280;11630;42.660;23.292;2023-02-20T07:17:25;68615.69;;;9.79;73.58
22930;BME280;11630;42.660;23.292;2023-02-20T07:20:00;68618.41;;;9.86;71.99
22930;BME280;11630;42.660;23.292;2023-02-20T07:22:31;68624.66;;;9.86;69.62
22930;BME280;11630;42.660;23.292;2023-02-20T07:25:02;68647.24;;;10.07;67.25
22930;BME280;11630;42.660;23.292;2023-02-20T07:27:32;68664.64;;;10.21;66.80
22930;BME280;11630;42.660;23.292;2023-02-20T07:30:04;68674.97;;;10.30;65.47
22930;BME280;11630;42.660;23.292;2023-02-20T07:32:35;68653.77;;;10.16;65.51
22930;BME280;11630;42.660;23.292;2023-02-20T07:35:06;68610.53;;;9.80;64.65
22930;BME280;11630;42.660;23.292;2023-02-20T07:37:36;68622.48;;;9.86;65.18
22930;BME280;11630;42.660;23.292;2023-02-20T07:40:07;68625.19;;;9.86;64.80
22930;BME280;11630;42.660;23.292;2023-02-20T07:42:38;68611.06;;;9.78;64.74
22930;BME280;11630;42.660;23.292;2023-02-20T07:45:10;68620.32;;;9.87;64.52
22930;BME280;11630;42.660;23.292;2023-02-20T07:47:41;68643.16;;;10.02;63.84
22930;BME280;11630;42.660;23.292;2023-02-20T07:50:13;68641.25;;;10.02;61.95
22930;BME280;11630;42.660;23.292;2023-02-20T07:52:43;68634.71;;;9.96;60.77
22930;BME280;11630;42.660;23.292;2023-02-20T07:55:15;68656.48;;;10.18;60.04
22930;BME280;11630;42.660;23.292;2023-02-20T07:57:48;68666.00;;;10.26;58.89
22930;BME280;11630;42.660;23.292;2023-02-20T08:00:21;68678.52;;;10.40;57.80
22930;BME280;11630;42.660;23.292;2023-02-20T08:02:51;68690.20;;;10.52;56.72
22930;BME280;11630;42.660;23.292;2023-02-20T08:05:21;68683.67;;;10.41;57.32
22930;BME280;11630;42.660;23.292;2023-02-20T08:07:54;68699.46;;;10.58;56.96
22930;BME280;11630;42.660;23.292;2023-02-20T08:10:26;68719.85;;;10.73;55.84
22930;BME280;11630;42.660;23.292;2023-02-20T08:12:59;68736.45;;;10.91;55.43
22930;BME280;11630;42.660;23.292;2023-02-20T08:15:29;68766.65;;;11.15;54.16
22930;BME280;11630;42.660;23.292;2023-02-20T08:17:59;68777.25;;;11.26;53.23
22930;BME280;11630;42.660;23.292;2023-02-20T08:20:30;68767.18;;;11.18;53.20
22930;BME280;11630;42.660;23.292;2023-02-20T08:23:01;68801.76;;;11.51;52.37
22930;BME280;11630;42.660;23.292;2023-02-20T08:25:32;68788.14;;;11.36;52.96
22930;BME280;11630;42.660;23.292;2023-02-20T08:28:03;68792.48;;;11.40;52.28
22930;BME280;11630;42.660;23.292;2023-02-20T08:30:34;68787.05;;;11.38;51.84
22930;BME280;11630;42.660;23.292;2023-02-20T08:33:04;68807.75;;;11.54;52.42
22930;BME280;11630;42.660;23.292;2023-02-20T08:35:35;68809.67;;;11.59;52.24
22930;BME280;11630;42.660;23.292;2023-02-20T08:38:26;68793.05;;;11.43;53.23
22930;BME280;11630;42.660;23.292;2023-02-20T08:40:58;68809.94;;;11.58;53.13
22930;BME280;11630;42.660;23.292;2023-02-20T08:43:29;68808.31;;;11.52;53.09
22930;BME280;11630;42.660;23.292;2023-02-20T08:45:59;68867.39;;;12.15;51.32
22930;BME280;11630;42.660;23.292;2023-02-20T08:48:30;68928.68;;;12.59;49.14
22930;BME280;11630;42.660;23.292;2023-02-20T08:51:00;68891.09;;;12.30;49.50
22930;BME280;11630;42.660;23.292;2023-02-20T08:53:31;68869.84;;;12.11;50.16
22930;BME280;11630;42.660;23.292;2023-02-20T08:56:03;68846.69;;;11.86;49.55
22930;BME280;11630;42.660;23.292;2023-02-20T08:58:34;68840.98;;;11.87;50.26
22930;BME280;11630;42.660;23.292;2023-02-20T09:01:06;68893.55;;;12.33;49.45
22930;BME280;11630;42.660;23.292;2023-02-20T09:03:37;68912.61;;;12.51;48.05
22930;BME280;11630;42.660;23.292;2023-02-20T09:06:08;68897.07;;;12.35;48.51
22930;BME280;11630;42.660;23.292;2023-02-20T09:08:38;68881.28;;;12.24;48.68
22930;BME280;11630;42.660;23.292;2023-02-20T09:11:09;68865.22;;;12.03;48.79
22930;BME280;11630;42.660;23.292;2023-02-20T09:13:46;68935.77;;;12.68;47.52
22930;BME280;11630;42.660;23.292;2023-02-20T09:16:22;68943.41;;;12.70;47.36
22930;BME280;11630;42.660;23.292;2023-02-20T09:18:53;68909.06;;;12.51;47.74
22930;BME280;11630;42.660;23.292;2023-02-20T09:21:24;68924.32;;;12.63;47.31
22930;BME280;11630;42.660;23.292;2023-02-20T09:23:54;68917.25;;;12.56;47.77
22930;BME280;11630;42.660;23.292;2023-02-20T09:26:24;68888.37;;;12.32;48.33
22930;BME280;11630;42.660;23.292;2023-02-20T09:28:55;68903.07;;;12.41;48.70
22930;BME280;11630;42.660;23.292;2023-02-20T09:31:26;68882.91;;;12.27;49.01
22930;BME280;11630;42.660;23.292;2023-02-20T09:33:57;68921.31;;;12.54;48.53
22930;BME280;11630;42.660;23.292;2023-02-20T09:36:27;68941.22;;;12.68;49.06
22930;BME280;11630;42.660;23.292;2023-02-20T09:38:58;68965.22;;;12.95;48.24
22930;BME280;11630;42.660;23.292;2023-02-20T09:41:49;68948.84;;;12.80;48.83
22930;BME280;11630;42.660;23.292;2023-02-20T09:44:28;68950.23;;;12.88;48.92
22930;BME280;11630;42.660;23.292;2023-02-20T09:47:02;68913.70;;;12.49;48.37
22930;BME280;11630;42.660;23.292;2023-02-20T09:49:31;68962.76;;;12.94;47.34
22930;BME280;11630;42.660;23.292;2023-02-20T09:52:09;68979.40;;;13.13;47.04
22930;BME280;11630;42.660;23.292;2023-02-20T09:54:42;68961.40;;;12.94;47.15
22930;BME280;11630;42.660;23.292;2023-02-20T09:57:16;68967.13;;;13.03;47.37
22930;BME280;11630;42.660;23.292;2023-02-20T10:00:20;68987.30;;;13.16;47.13
22930;BME280;11630;42.660;23.292;2023-02-20T10:02:33;68961.95;;;12.92;46.16
22930;BME280;11630;42.660;23.292;2023-02-20T10:07:49;69046.75;;;13.66;43.88
22930;BME280;11630;42.660;23.292;2023-02-20T10:10:28;69091.52;;;14.11;42.18
22930;BME280;11630;42.660;23.292;2023-02-20T10:18:32;69134.08;;;14.45;40.24
22930;BME280;11630;42.660;23.292;2023-02-20T10:21:16;69101.59;;;14.19;40.11
22930;BME280;11630;42.660;23.292;2023-02-20T10:24:02;69048.94;;;13.70;40.52
22930;BME280;11630;42.660;23.292;2023-02-20T10:26:36;69047.30;;;13.74;39.77
22930;BME280;11630;42.660;23.292;2023-02-20T10:29:17;69136.27;;;14.50;38.55
22930;BME280;11630;42.660;23.292;2023-02-20T10:31:51;69131.62;;;14.44;38.18
22930;BME280;11630;42.660;23.292;2023-02-20T10:34:28;69098.31;;;14.21;37.79
22930;BME280;11630;42.660;23.292;2023-02-20T10:37:05;69090.67;;;14.14;38.07
22930;BME280;11630;42.660;23.292;2023-02-20T10:39:37;69086.29;;;14.05;38.09
22930;BME280;11630;42.660;23.292;2023-02-20T10:42:13;69157.00;;;14.68;37.88
22930;BME280;11630;42.660;23.292;2023-02-20T10:50:58;69225.55;;;15.37;36.47
22930;BME280;11630;42.660;23.292;2023-02-20T10:52:47;69212.43;;;15.18;37.18
22930;BME280;11630;42.660;23.292;2023-02-20T10:55:20;69225.81;;;15.36;37.10
22930;BME280;11630;42.660;23.292;2023-02-20T10:57:56;69195.23;;;15.06;37.25
22930;BME280;11630;42.660;23.292;2023-02-20T11:00:27;69176.39;;;14.87;38.00
22930;BME280;11630;42.660;23.292;2023-02-20T11:03:03;69160.27;;;14.74;38.40
22930;BME280;11630;42.660;23.292;2023-02-20T11:05:30;69193.31;;;15.00;38.13
22930;BME280;11630;42.660;23.292;2023-02-20T11:08:00;69126.17;;;14.39;39.29
22930;BME280;11630;42.660;23.292;2023-02-20T11:10:31;69151.80;;;14.67;39.16
22930;BME280;11630;42.660;23.292;2023-02-20T11:13:02;69194.13;;;14.97;38.88
22930;BME280;11630;42.660;23.292;2023-02-20T11:15:33;69175.84;;;14.84;38.99
22930;BME280;11630;42.660;23.292;2023-02-20T11:18:10;69140.90;;;14.58;39.04
22930;BME280;11630;42.660;23.292;2023-02-20T11:20:39;69238.39;;;15.45;38.19
22930;BME280;11630;42.660;23.292;2023-02-20T11:23:09;69180.47;;;14.95;39.16
22930;BME280;11630;42.660;23.292;2023-02-20T11:25:40;69231.56;;;15.42;38.48
22930;BME280;11630;42.660;23.292;2023-02-20T11:28:26;69198.50;;;15.11;38.54
22930;BME280;11630;42.660;23.292;2023-02-20T11:31:05;69189.49;;;14.97;38.72
22930;BME280;11630;42.660;23.292;2023-02-20T11:33:44;69256.41;;;15.64;38.17
22930;BME280;11630;42.660;23.292;2023-02-20T11:36:21;69200.95;;;15.10;39.22
22930;BME280;11630;42.660;23.292;2023-02-20T11:38:46;69216.82;;;15.24;38.76
22930;BME280;11630;42.660;23.292;2023-02-20T11:41:31;69219.00;;;15.24;38.71
22930;BME280;11630;42.660;23.292;2023-02-20T11:46:42;69170.39;;;14.79;38.86
22930;BME280;11630;42.660;23.292;2023-02-20T11:49:26;69227.46;;;15.35;38.57
22930;BME280;11630;42.660;23.292;2023-02-20T11:52:21;69302.61;;;16.02;37.20
22930;BME280;11630;42.660;23.292;2023-02-20T11:55:22;69267.35;;;15.71;37.76
22930;BME280;11630;42.660;23.292;2023-02-20T11:57:43;69264.61;;;15.71;37.43
22930;BME280;11630;42.660;23.292;2023-02-20T12:00:20;69230.73;;;15.43;37.68
22930;BME280;11630;42.660;23.292;2023-02-20T12:03:12;69263.27;;;15.66;37.20
22930;BME280;11630;42.660;23.292;2023-02-20T12:05:42;69261.07;;;15.64;37.36
22930;BME280;11630;42.660;23.292;2023-02-20T12:08:35;69306.98;;;16.01;36.84
22930;BME280;11630;42.660;23.292;2023-02-20T12:11:16;69272.28;;;15.73;36.70
22930;BME280;11630;42.660;23.292;2023-02-20T12:13:51;69227.19;;;15.36;37.22
22930;BME280;11630;42.660;23.292;2023-02-20T12:19:27;69246.03;;;15.54;36.57
22930;BME280;11630;42.660;23.292;2023-02-20T12:22:25;69295.22;;;15.97;36.35
22930;BME280;11630;42.660;23.292;2023-02-20T12:25:51;69288.93;;;15.92;35.95
22930;BME280;11630;42.660;23.292;2023-02-20T12:27:49;69254.80;;;15.57;36.56
22930;BME280;11630;42.660;23.292;2023-02-20T12:30:26;69279.41;;;15.70;36.74
22930;BME280;11630;42.660;23.292;2023-02-20T12:33:01;69254.52;;;15.61;36.77
22930;BME280;11630;42.660;23.292;2023-02-20T12:41:26;69339.54;;;16.32;36.25
22930;BME280;11630;42.660;23.292;2023-02-20T12:49:41;69379.70;;;16.75;35.87
22930;BME280;11630;42.660;23.292;2023-02-20T12:54:51;69278.81;;;15.84;37.05
22930;BME280;11630;42.660;23.292;2023-02-20T12:57:47;69255.59;;;15.59;37.05
22930;BME280;11630;42.660;23.292;2023-02-20T13:00:28;69197.67;;;15.12;37.68
22930;BME280;11630;42.660;23.292;2023-02-20T13:02:58;69232.66;;;15.43;37.65
22930;BME280;11630;42.660;23.292;2023-02-20T13:05:27;69188.67;;;15.00;38.13
22930;BME280;11630;42.660;23.292;2023-02-20T13:08:08;69165.46;;;14.85;38.62
22930;BME280;11630;42.660;23.292;2023-02-20T13:10:45;69202.86;;;15.08;38.53
22930;BME280;11630;42.660;23.292;2023-02-20T13:13:18;69138.17;;;14.55;39.06
22930;BME280;11630;42.660;23.292;2023-02-20T13:16:09;69152.09;;;14.69;39.39
22930;BME280;11630;42.660;23.292;2023-02-20T13:18:46;69115.24;;;14.37;39.65
22930;BME280;11630;42.660;23.292;2023-02-20T13:21:15;69154.55;;;14.60;39.28
22930;BME280;11630;42.660;23.292;2023-02-20T13:23:45;69166.00;;;14.83;38.86
22930;BME280;11630;42.660;23.292;2023-02-20T13:29:15;69085.75;;;14.07;39.56
22930;BME280;11630;42.660;23.292;2023-02-20T13:31:51;69045.66;;;13.75;40.24
22930;BME280;11630;42.660;23.292;2023-02-20T13:34:35;69004.47;;;13.31;42.19
22930;BME280;11630;42.660;23.292;2023-02-20T13:37:53;68976.12;;;13.10;42.94
22930;BME280;11630;42.660;23.292;2023-02-20T13:39:39;68957.59;;;12.98;42.90
22930;BME280;11630;42.660;23.292;2023-02-20T13:42:32;68934.14;;;12.64;43.64
22930;BME280;11630;42.660;23.292;2023-02-20T13:45:31;68928.41;;;12.65;43.67
22930;BME280;11630;42.660;23.292;2023-02-20T13:47:36;68931.42;;;12.64;43.87
22930;BME280;11630;42.660;23.292;2023-02-20T13:50:26;68936.59;;;12.73;44.04
22930;BME280;11630;42.660;23.292;2023-02-20T13:52:53;68929.77;;;12.65;44.29
22930;BME280;11630;42.660;23.292;2023-02-20T13:55:25;68927.05;;;12.65;44.21
22930;BME280;11630;42.660;23.292;2023-02-20T14:00:51;68902.27;;;12.44;45.59
22930;BME280;11630;42.660;23.292;2023-02-20T14:03:27;68879.92;;;12.21;46.64
22930;BME280;11630;42.660;23.292;2023-02-20T14:06:10;68880.75;;;12.26;46.87
22930;BME280;11630;42.660;23.292;2023-02-20T14:08:45;68871.77;;;12.16;47.02
22930;BME280;11630;42.660;23.292;2023-02-20T14:14:41;68896.00;;;12.34;46.63
22930;BME280;11630;42.660;23.292;2023-02-20T14:16:35;68893.55;;;12.36;46.69
22930;BME280;11630;42.660;23.292;2023-02-20T14:19:12;68919.97;;;12.61;46.58
22930;BME280;11630;42.660;23.292;2023-02-20T14:21:38;68933.59;;;12.71;46.32
22930;BME280;11630;42.660;23.292;2023-02-20T14:24:27;68903.34;;;12.42;47.10
22930;BME280;11630;42.660;23.292;2023-02-20T14:26:58;68910.69;;;12.50;47.12
22930;BME280;11630;42.660;23.292;2023-02-20T14:29:31;68886.45;;;12.29;47.63